createdAt,value
2022-08-25T00:00:14.791Z,8.50
2022-08-25T00:02:55.035Z,5.70
2022-08-25T00:05:29.230Z,5.50
2022-08-25T00:08:00.706Z,7.47
2022-08-25T00:10:28.871Z,7.82
2022-08-25T00:12:56.492Z,7.40
2022-08-25T00:15:24.328Z,8.50
2022-08-25T00:17:52.145Z,9.15
2022-08-25T00:20:19.941Z,8.95
2022-08-25T00:22:47.609Z,8.77
2022-08-25T00:25:15.697Z,6.72
2022-08-25T00:27:43.806Z,8.45
2022-08-25T00:30:15.940Z,7.93
2022-08-25T00:32:44.557Z,9.57
2022-08-25T00:35:24.515Z,7.00
2022-08-25T00:37:52.083Z,7.65
2022-08-25T00:40:20.342Z,9.75
2022-08-25T00:42:47.995Z,8.70
2022-08-25T00:45:15.654Z,10.48
2022-08-25T00:47:43.188Z,10.40
2022-08-25T00:50:12.195Z,9.77
2022-08-25T00:52:47.981Z,6.95
2022-08-25T00:55:23.449Z,8.05
2022-08-25T00:58:14.203Z,6.80
2022-08-25T01:00:46.495Z,7.22
2022-08-25T01:03:14.506Z,6.05
2022-08-25T01:05:43.657Z,6.78
2022-08-25T01:08:11.797Z,9.63
2022-08-25T01:10:45.219Z,7.30
2022-08-25T01:13:20.234Z,6.43
2022-08-25T01:15:52.615Z,8.68
2022-08-25T01:18:20.756Z,9.55
2022-08-25T01:20:51.029Z,8.63
2022-08-25T01:23:20.138Z,8.02
2022-08-25T01:26:14.465Z,6.97
2022-08-25T01:29:04.852Z,6.78
2022-08-25T01:31:33.627Z,7.93
2022-08-25T01:34:01.274Z,8.40
2022-08-25T01:36:30.261Z,7.35
2022-08-25T01:38:58.604Z,8.13
2022-08-25T01:41:34.085Z,8.88
2022-08-25T01:44:05.678Z,10.60
2022-08-25T01:46:34.340Z,13.85
2022-08-25T01:49:06.266Z,8.35
2022-08-25T01:51:42.822Z,9.20
2022-08-25T01:54:10.511Z,13.10
2022-08-25T01:56:38.738Z,10.15
2022-08-25T01:59:06.366Z,13.20
2022-08-25T02:01:34.559Z,11.68
2022-08-25T02:04:02.292Z,13.77
2022-08-25T02:06:33.240Z,10.00
2022-08-25T02:09:07.748Z,15.50
2022-08-25T02:11:37.642Z,13.48
2022-08-25T02:14:06.230Z,12.13
2022-08-25T02:16:37.381Z,10.65
2022-08-25T02:19:11.898Z,12.70
2022-08-25T02:21:39.652Z,13.80
2022-08-25T02:24:08.161Z,12.07
2022-08-25T02:26:36.474Z,13.27
2022-08-25T02:29:05.001Z,12.35
2022-08-25T02:31:32.718Z,12.13
2022-08-25T02:34:02.060Z,11.10
2022-08-25T02:36:30.704Z,13.27
2022-08-25T02:38:59.352Z,13.32
2022-08-25T02:41:30.928Z,14.10
2022-08-25T02:44:00.766Z,9.93
2022-08-25T02:46:28.795Z,10.80
2022-08-25T02:48:56.796Z,11.57
2022-08-25T02:51:25.598Z,11.35
2022-08-25T02:53:53.588Z,10.45
2022-08-25T02:56:21.309Z,12.35
2022-08-25T02:58:48.897Z,12.02
2022-08-25T03:01:17.129Z,13.63
2022-08-25T03:03:47.116Z,11.60
2022-08-25T03:06:17.639Z,12.75
2022-08-25T03:08:45.600Z,12.10
2022-08-25T03:11:13.407Z,11.82
2022-08-25T03:13:41.210Z,13.43
2022-08-25T03:16:10.942Z,11.77
2022-08-25T03:18:41.339Z,12.02
2022-08-25T03:21:11.725Z,15.77
2022-08-25T03:23:41.004Z,12.60
2022-08-25T03:26:27.153Z,12.13
2022-08-25T03:28:57.925Z,11.27
2022-08-25T03:31:27.794Z,11.45
2022-08-25T03:33:55.811Z,12.32
2022-08-25T03:36:23.574Z,11.57
2022-08-25T03:38:52.351Z,11.15
2022-08-25T03:41:27.845Z,11.02
2022-08-25T03:43:57.316Z,10.95
2022-08-25T03:46:47.174Z,10.15
2022-08-25T03:49:18.096Z,9.50
2022-08-25T03:51:48.293Z,11.52
2022-08-25T03:54:18.724Z,10.00
2022-08-25T03:56:46.518Z,9.98
2022-08-25T03:59:14.229Z,11.60
2022-08-25T04:01:44.267Z,9.50
2022-08-25T04:04:13.358Z,11.35
2022-08-25T04:06:42.143Z,10.00
2022-08-25T04:09:10.924Z,11.20
2022-08-25T04:11:38.873Z,14.55
2022-08-25T04:14:06.411Z,12.10
2022-08-25T04:16:35.233Z,13.27
2022-08-25T04:19:06.512Z,11.95
2022-08-25T04:21:34.860Z,11.68
2022-08-25T04:24:02.493Z,12.15
2022-08-25T04:26:34.288Z,14.63
2022-08-25T04:29:04.602Z,11.18
2022-08-25T04:31:33.571Z,11.50
2022-08-25T04:34:17.344Z,11.18
2022-08-25T04:36:54.096Z,9.48
2022-08-25T04:39:21.708Z,9.20
2022-08-25T04:41:50.681Z,12.00
2022-08-25T04:44:18.323Z,9.65
2022-08-25T04:46:45.934Z,12.10
2022-08-25T04:49:13.445Z,9.88
2022-08-25T04:51:41.768Z,12.23
2022-08-25T04:54:12.749Z,12.90
2022-08-25T04:56:41.499Z,14.65
2022-08-25T04:59:15.241Z,14.88
2022-08-25T05:01:46.221Z,17.10
2022-08-25T05:04:28.456Z,19.40
2022-08-25T05:06:57.373Z,18.80
2022-08-25T05:09:25.943Z,21.33
2022-08-25T05:11:54.694Z,22.02
2022-08-25T05:14:26.289Z,21.13
2022-08-25T05:16:55.644Z,22.42
2022-08-25T05:19:24.345Z,24.60
2022-08-25T05:21:52.644Z,23.80
2022-08-25T05:24:21.044Z,24.98
2022-08-25T05:26:49.721Z,26.38
2022-08-25T05:29:17.523Z,27.35
2022-08-25T05:31:50.135Z,23.42
2022-08-25T05:34:19.555Z,23.17
2022-08-25T05:36:48.600Z,25.95
2022-08-25T05:39:16.280Z,26.60
2022-08-25T05:41:44.232Z,25.85
2022-08-25T05:44:12.880Z,24.33
2022-08-25T05:46:40.478Z,26.58
2022-08-25T05:49:08.089Z,24.08
2022-08-25T05:51:35.609Z,23.40
2022-08-25T05:54:03.921Z,23.30
2022-08-25T05:56:31.513Z,26.20
2022-08-25T05:58:59.235Z,26.80
2022-08-25T06:01:48.180Z,27.20
2022-08-25T06:04:17.929Z,27.13
2022-08-25T06:06:45.477Z,23.70
2022-08-25T06:09:13.058Z,25.75
2022-08-25T06:11:41.461Z,27.83
2022-08-25T06:14:10.204Z,22.27
2022-08-25T06:16:39.200Z,25.60
2022-08-25T06:19:08.602Z,27.30
2022-08-25T06:21:39.176Z,23.67
2022-08-25T06:24:12.076Z,24.23
2022-08-25T06:26:44.025Z,22.85
2022-08-25T06:29:14.147Z,22.05
2022-08-25T06:31:42.866Z,21.73
2022-08-25T06:34:11.222Z,18.63
2022-08-25T06:36:39.334Z,21.42
2022-08-25T06:39:07.916Z,19.23
2022-08-25T06:41:38.829Z,17.35
2022-08-25T06:44:06.384Z,17.45
2022-08-25T06:46:36.496Z,17.95
2022-08-25T06:49:06.749Z,17.33
2022-08-25T06:51:36.070Z,19.15
2022-08-25T06:54:05.557Z,17.75
2022-08-25T06:56:34.222Z,16.52
2022-08-25T06:59:03.903Z,16.02
2022-08-25T07:01:32.121Z,14.95
2022-08-25T07:04:02.366Z,17.17
2022-08-25T07:06:32.985Z,23.42
2022-08-25T07:09:00.578Z,17.33
2022-08-25T07:11:29.245Z,15.02
2022-08-25T07:13:56.885Z,16.83
2022-08-25T07:16:30.293Z,17.50
2022-08-25T07:19:00.254Z,16.00
2022-08-25T07:21:33.154Z,15.00
2022-08-25T07:24:04.279Z,17.25
2022-08-25T07:26:38.469Z,17.42
2022-08-25T07:29:13.141Z,16.08
2022-08-25T07:31:41.273Z,16.60
2022-08-25T07:34:28.443Z,16.90
2022-08-25T07:36:57.185Z,18.63
2022-08-25T07:39:25.817Z,15.50
2022-08-25T07:41:54.345Z,15.18
2022-08-25T07:44:23.429Z,14.60
2022-08-25T07:46:53.658Z,14.27
2022-08-25T07:49:23.660Z,13.20
2022-08-25T07:52:05.350Z,15.77
2022-08-25T07:54:38.908Z,14.90
2022-08-25T07:57:15.343Z,16.27
2022-08-25T07:59:51.258Z,14.38
2022-08-25T08:02:19.861Z,15.20
2022-08-25T08:04:50.230Z,13.70
2022-08-25T08:07:23.952Z,11.73
2022-08-25T08:10:42.312Z,11.43
2022-08-25T08:13:00.568Z,15.80
2022-08-25T08:15:29.699Z,15.48
2022-08-25T08:17:59.325Z,11.23
2022-08-25T08:20:28.847Z,11.90
2022-08-25T08:22:57.028Z,17.67
2022-08-25T08:25:27.230Z,12.68
2022-08-25T08:27:56.643Z,11.32
2022-08-25T08:30:26.337Z,12.10
2022-08-25T08:33:11.226Z,15.35
2022-08-25T08:35:41.300Z,14.75
2022-08-25T08:38:14.502Z,14.00
2022-08-25T08:41:21.541Z,15.15
2022-08-25T08:43:59.996Z,12.05
2022-08-25T08:46:40.897Z,11.20
2022-08-25T08:49:30.025Z,16.50
2022-08-25T08:52:02.807Z,15.40
2022-08-25T08:54:36.265Z,12.40
2022-08-25T08:57:16.524Z,17.02
2022-08-25T08:59:59.974Z,12.55
2022-08-25T09:02:51.596Z,10.38
2022-08-25T09:05:24.299Z,14.18
2022-08-25T09:07:56.863Z,16.17
2022-08-25T09:10:28.686Z,13.38
2022-08-25T09:13:16.206Z,11.20
2022-08-25T09:16:34.497Z,11.40
2022-08-25T09:19:36.834Z,12.57
2022-08-25T09:22:35.832Z,19.95
2022-08-25T09:25:08.848Z,15.07
2022-08-25T09:27:39.500Z,12.40
2022-08-25T09:30:08.146Z,12.05
2022-08-25T09:32:48.927Z,14.02
2022-08-25T09:35:29.296Z,11.75
2022-08-25T09:37:57.757Z,11.75
2022-08-25T09:40:28.718Z,14.00
2022-08-25T09:42:59.007Z,12.82
2022-08-25T09:45:38.825Z,11.27
2022-08-25T09:48:26.822Z,11.70
2022-08-25T09:51:09.506Z,11.50
2022-08-25T09:53:43.324Z,14.48
2022-08-25T09:56:12.483Z,12.90
2022-08-25T09:58:40.012Z,11.55
2022-08-25T10:01:23.322Z,11.32
2022-08-25T10:04:02.523Z,15.43
2022-08-25T10:06:50.932Z,11.77
2022-08-25T10:09:38.114Z,14.20
2022-08-25T10:12:29.153Z,11.07
2022-08-25T10:14:57.017Z,12.73
2022-08-25T10:17:31.332Z,12.65
2022-08-25T10:20:10.271Z,13.30
2022-08-25T10:22:42.357Z,12.63
2022-08-25T10:25:12.968Z,11.52
2022-08-25T10:27:52.762Z,11.73
2022-08-25T10:30:31.375Z,11.20
2022-08-25T10:33:24.644Z,12.50
2022-08-25T10:36:11.646Z,12.18
2022-08-25T10:38:49.546Z,14.85
2022-08-25T10:41:32.539Z,12.07
2022-08-25T10:44:46.538Z,12.00
2022-08-25T10:47:26.056Z,10.93
2022-08-25T10:50:05.591Z,13.45
2022-08-25T10:52:44.517Z,11.32
2022-08-25T10:55:24.042Z,15.05
2022-08-25T10:57:57.911Z,18.13
2022-08-25T11:00:31.795Z,13.57
2022-08-25T11:03:26.745Z,11.18
2022-08-25T11:06:05.749Z,11.85
2022-08-25T11:08:36.336Z,9.50
2022-08-25T11:11:32.816Z,9.93
2022-08-25T11:14:43.588Z,10.52
2022-08-25T11:17:17.966Z,13.73
2022-08-25T11:19:49.156Z,9.48
2022-08-25T11:22:25.966Z,10.60
2022-08-25T11:25:32.280Z,11.98
2022-08-25T11:28:10.472Z,10.25
2022-08-25T11:30:38.973Z,11.15
2022-08-25T11:33:11.842Z,8.20
2022-08-25T11:36:02.275Z,13.07
2022-08-25T11:39:06.493Z,11.43
2022-08-25T11:41:55.982Z,9.93
2022-08-25T11:45:04.660Z,16.25
2022-08-25T11:47:57.603Z,13.73
2022-08-25T11:50:35.123Z,17.00
2022-08-25T11:53:49.277Z,11.98
2022-08-25T11:56:35.998Z,9.75
2022-08-25T11:59:05.295Z,7.90
2022-08-25T12:01:43.241Z,16.30
2022-08-25T12:04:13.229Z,13.25
2022-08-25T12:07:05.910Z,12.68
2022-08-25T12:09:54.598Z,14.95
2022-08-25T12:12:38.813Z,12.07
2022-08-25T12:15:41.922Z,11.43
2022-08-25T12:18:12.258Z,15.23
2022-08-25T12:20:59.102Z,11.23
2022-08-25T12:23:45.185Z,10.70
2022-08-25T12:26:36.829Z,13.35
2022-08-25T12:29:13.765Z,14.52
2022-08-25T12:36:06.501Z,12.30
2022-08-25T12:38:42.671Z,12.35
2022-08-25T12:41:14.440Z,10.55
2022-08-25T12:43:54.693Z,11.25
2022-08-25T12:46:26.325Z,12.40
2022-08-25T12:49:19.860Z,11.82
2022-08-25T12:51:57.268Z,8.05
2022-08-25T12:54:40.480Z,10.45
2022-08-25T12:57:45.950Z,11.02
2022-08-25T13:03:33.006Z,9.20
2022-08-25T13:06:24.909Z,9.52
2022-08-25T13:08:58.783Z,10.23
2022-08-25T13:11:53.961Z,6.72
2022-08-25T13:14:41.722Z,7.57
2022-08-25T13:17:12.128Z,9.05
2022-08-25T13:19:39.652Z,10.23
2022-08-25T13:22:16.396Z,11.02
2022-08-25T13:24:50.489Z,9.35
2022-08-25T13:27:24.302Z,8.20
2022-08-25T13:29:55.920Z,11.25
2022-08-25T13:32:29.735Z,7.03
2022-08-25T13:35:33.112Z,11.43
2022-08-25T13:38:15.362Z,8.23
2022-08-25T13:40:44.325Z,12.15
2022-08-25T13:43:15.061Z,8.85
2022-08-25T13:45:46.745Z,8.05
2022-08-25T13:48:36.110Z,9.25
2022-08-25T13:51:31.335Z,10.13
2022-08-25T13:54:07.260Z,8.35
2022-08-25T13:56:40.943Z,6.05
2022-08-25T13:59:34.320Z,7.72
2022-08-25T14:02:19.257Z,9.32
2022-08-25T14:04:51.778Z,9.85
2022-08-25T14:07:23.224Z,8.70
2022-08-25T14:10:00.865Z,9.90
2022-08-25T14:12:42.196Z,6.95
2022-08-25T14:15:18.537Z,7.43
2022-08-25T14:17:59.574Z,6.20
2022-08-25T14:20:31.091Z,6.68
2022-08-25T14:23:04.939Z,6.70
2022-08-25T14:25:42.202Z,7.75
2022-08-25T14:28:14.773Z,6.95
2022-08-25T14:30:54.374Z,9.30
2022-08-25T14:35:54.384Z,8.95
2022-08-25T14:38:23.447Z,8.38
2022-08-25T14:40:51.446Z,17.25
2022-08-25T14:43:20.922Z,19.92
2022-08-25T14:45:52.524Z,8.90
2022-08-25T14:48:30.785Z,7.20
2022-08-25T14:51:00.580Z,12.02
2022-08-25T14:53:28.754Z,9.88
2022-08-25T14:55:59.135Z,8.18
2022-08-25T14:58:33.957Z,7.13
2022-08-25T15:01:03.089Z,7.30
2022-08-25T15:03:43.177Z,9.18
2022-08-25T15:06:17.297Z,8.35
2022-08-25T15:09:03.784Z,8.10
2022-08-25T15:11:32.053Z,7.28
2022-08-25T15:14:03.416Z,5.03
2022-08-25T15:16:35.321Z,8.65
2022-08-25T15:19:06.605Z,10.98
2022-08-25T15:21:36.368Z,10.38
2022-08-25T15:24:05.601Z,6.55
2022-08-25T15:26:42.772Z,5.05
2022-08-25T15:29:10.551Z,5.15
2022-08-25T15:31:39.885Z,6.07
2022-08-25T15:34:11.757Z,7.00
2022-08-25T15:36:40.381Z,4.88
2022-08-25T15:39:10.662Z,7.38
2022-08-25T15:41:38.645Z,6.50
2022-08-25T15:44:07.952Z,6.32
2022-08-25T15:46:36.774Z,8.35
2022-08-25T15:49:07.986Z,6.05
2022-08-25T15:51:36.037Z,8.43
2022-08-25T15:54:04.402Z,6.93
2022-08-25T15:56:32.090Z,6.30
2022-08-25T15:58:59.611Z,6.15
2022-08-25T16:01:35.062Z,7.25
2022-08-25T16:04:02.809Z,6.78
2022-08-25T16:06:31.325Z,7.30
2022-08-25T16:08:58.994Z,6.35
2022-08-25T16:11:30.276Z,5.20
2022-08-25T16:13:58.141Z,8.00
2022-08-25T16:16:28.806Z,7.07
2022-08-25T16:21:30.081Z,6.82
2022-08-25T16:24:01.892Z,10.63
2022-08-25T16:26:31.761Z,8.88
2022-08-25T16:28:59.319Z,8.82
2022-08-25T16:31:27.357Z,8.82
2022-08-25T16:33:58.163Z,7.55
2022-08-25T16:36:27.191Z,7.95
2022-08-25T16:38:57.431Z,7.72
2022-08-25T16:41:36.088Z,9.23
2022-08-25T16:44:07.777Z,11.05
2022-08-25T16:46:40.842Z,9.45
2022-08-25T16:49:09.870Z,7.07
2022-08-25T16:51:39.728Z,6.85
2022-08-25T16:54:28.360Z,7.47
2022-08-25T16:56:57.551Z,8.32
2022-08-25T16:59:26.024Z,11.70
2022-08-25T17:01:53.919Z,7.88
2022-08-25T17:04:21.636Z,7.30
2022-08-25T17:07:00.067Z,8.18
2022-08-25T17:09:30.105Z,6.85
2022-08-25T17:11:57.794Z,7.65
2022-08-25T17:14:25.356Z,7.93
2022-08-25T17:16:55.178Z,7.35
2022-08-25T17:19:25.072Z,9.75
2022-08-25T17:21:54.796Z,11.50
2022-08-25T17:24:29.223Z,12.63
2022-08-25T17:27:01.418Z,8.23
2022-08-25T17:29:29.814Z,8.40
2022-08-25T17:31:58.548Z,9.43
2022-08-25T17:34:28.376Z,8.52
2022-08-25T17:36:57.362Z,9.65
2022-08-25T17:39:25.796Z,9.73
2022-08-25T17:41:54.447Z,9.57
2022-08-25T17:44:22.129Z,11.15
2022-08-25T17:46:50.856Z,7.97
2022-08-25T17:49:19.564Z,8.18
2022-08-25T17:51:47.154Z,6.57
2022-08-25T17:54:15.328Z,9.40
2022-08-25T17:56:43.596Z,9.13
2022-08-25T17:59:12.129Z,7.90
2022-08-25T18:01:40.846Z,7.40
2022-08-25T18:04:17.429Z,7.88
2022-08-25T18:06:47.529Z,8.20
2022-08-25T18:09:16.580Z,9.73
2022-08-25T18:11:46.112Z,7.80
2022-08-25T18:14:16.759Z,6.55
2022-08-25T18:16:45.249Z,9.35
2022-08-25T18:19:14.447Z,8.35
2022-08-25T18:21:43.457Z,14.32
2022-08-25T18:24:11.733Z,8.35
2022-08-25T18:26:42.204Z,11.98
2022-08-25T18:29:13.079Z,7.53
2022-08-25T18:31:42.226Z,8.27
2022-08-25T18:34:11.507Z,10.00
2022-08-25T18:36:39.643Z,7.88
2022-08-25T18:39:25.897Z,8.48
2022-08-25T18:41:53.943Z,10.50
2022-08-25T18:44:21.735Z,8.57
2022-08-25T18:46:49.560Z,8.23
2022-08-25T18:49:17.653Z,9.38
2022-08-25T18:51:46.280Z,6.57
2022-08-25T18:54:22.850Z,9.70
2022-08-25T18:56:54.653Z,10.07
2022-08-25T18:59:23.408Z,6.65
2022-08-25T19:01:53.474Z,10.00
2022-08-25T19:04:28.538Z,11.50
2022-08-25T19:07:01.149Z,9.38
2022-08-25T19:09:29.391Z,9.13
2022-08-25T19:11:59.086Z,9.82
2022-08-25T19:14:26.833Z,10.02
2022-08-25T19:16:55.033Z,11.30
2022-08-25T19:19:23.870Z,10.82
2022-08-25T19:21:51.732Z,8.93
2022-08-25T19:24:19.938Z,7.93
2022-08-25T19:26:51.382Z,6.80
2022-08-25T19:29:22.942Z,5.80
2022-08-25T19:31:51.301Z,9.40
2022-08-25T19:34:28.363Z,10.25
2022-08-25T19:37:00.575Z,6.60
2022-08-25T19:39:30.606Z,6.85
2022-08-25T19:41:58.666Z,7.38
2022-08-25T19:44:28.138Z,10.20
2022-08-25T19:46:56.682Z,6.15
2022-08-25T19:49:31.799Z,7.00
2022-08-25T19:52:03.682Z,9.65
2022-08-25T19:54:44.218Z,10.18
2022-08-25T19:57:27.986Z,8.30
2022-08-25T20:00:08.101Z,8.52
2022-08-25T20:02:39.819Z,8.15
2022-08-25T20:05:08.438Z,10.23
2022-08-25T20:07:37.496Z,9.50
2022-08-25T20:10:07.645Z,7.05
2022-08-25T20:12:38.302Z,11.80
2022-08-25T20:15:07.677Z,7.90
2022-08-25T20:17:36.586Z,8.27
2022-08-25T20:20:12.923Z,10.13
2022-08-25T20:22:41.278Z,11.70
2022-08-25T20:25:13.741Z,13.45
2022-08-25T20:27:45.764Z,9.35
2022-08-25T20:30:18.801Z,8.68
2022-08-25T20:32:46.925Z,10.20
2022-08-25T20:35:16.490Z,10.68
2022-08-25T20:37:45.900Z,9.10
2022-08-25T20:40:16.770Z,8.05
2022-08-25T20:42:45.354Z,7.53
2022-08-25T20:45:16.243Z,8.30
2022-08-25T20:47:44.616Z,7.77
2022-08-25T20:50:12.370Z,10.98
2022-08-25T20:52:42.558Z,8.38
2022-08-25T20:57:40.414Z,10.98
2022-08-25T21:00:10.058Z,9.88
2022-08-25T21:02:37.817Z,10.75
2022-08-25T21:05:06.182Z,7.25
2022-08-25T21:07:35.795Z,15.75
2022-08-25T21:10:14.123Z,10.95
2022-08-25T21:12:43.230Z,9.75
2022-08-25T21:15:13.504Z,9.27
2022-08-25T21:17:50.633Z,11.18
2022-08-25T21:20:18.448Z,12.65
2022-08-25T21:22:46.121Z,11.27
2022-08-25T21:25:14.432Z,8.65
2022-08-25T21:27:42.025Z,11.38
2022-08-25T21:30:12.890Z,8.10
2022-08-25T21:32:40.482Z,11.73
2022-08-25T21:35:23.085Z,10.48
2022-08-25T21:37:53.210Z,11.07
2022-08-25T21:40:23.171Z,8.63
2022-08-25T21:42:52.153Z,9.80
2022-08-25T21:45:21.722Z,10.18
2022-08-25T21:47:49.764Z,9.93
2022-08-25T21:50:19.832Z,9.25
2022-08-25T21:52:47.375Z,8.38
2022-08-25T21:55:22.271Z,9.35
2022-08-25T21:57:50.332Z,8.10
2022-08-25T22:00:19.196Z,7.55
2022-08-25T22:02:49.502Z,7.57
2022-08-25T22:05:17.275Z,11.20
2022-08-25T22:07:45.100Z,8.38
2022-08-25T22:10:16.686Z,8.00
2022-08-25T22:12:47.632Z,9.27
2022-08-25T22:15:16.485Z,11.18
2022-08-25T22:17:48.111Z,9.15
2022-08-25T22:20:18.026Z,10.35
2022-08-25T22:22:46.139Z,11.38
2022-08-25T22:25:13.847Z,8.63
2022-08-25T22:27:42.272Z,13.13
2022-08-25T22:30:10.892Z,11.65
2022-08-25T22:32:38.577Z,11.88
2022-08-25T22:35:06.973Z,7.63
2022-08-25T22:37:35.606Z,9.27
2022-08-25T22:40:03.619Z,9.55
2022-08-25T22:42:31.497Z,9.75
2022-08-25T22:44:59.102Z,8.98
2022-08-25T22:47:27.428Z,7.47
2022-08-25T22:49:55.696Z,8.68
2022-08-25T22:52:26.115Z,10.98
2022-08-25T22:55:02.964Z,8.63
2022-08-25T22:57:30.806Z,10.32
2022-08-25T22:59:59.302Z,9.43
2022-08-25T23:02:27.649Z,10.40
2022-08-25T23:04:58.076Z,6.32
2022-08-25T23:07:29.081Z,8.23
2022-08-25T23:09:59.718Z,9.05
2022-08-25T23:12:27.394Z,11.53
2022-08-25T23:14:55.613Z,8.77
2022-08-25T23:17:23.411Z,11.57
2022-08-25T23:19:51.042Z,9.88
2022-08-25T23:22:19.401Z,9.43
2022-08-25T23:24:49.333Z,11.80
2022-08-25T23:27:19.631Z,8.88
2022-08-25T23:29:49.758Z,8.27
2022-08-25T23:32:18.552Z,8.70
2022-08-25T23:34:47.088Z,7.57
2022-08-25T23:37:16.132Z,6.28
2022-08-25T23:42:19.281Z,8.52
2022-08-25T23:44:47.821Z,10.80
2022-08-25T23:47:16.282Z,8.27
2022-08-25T23:49:44.454Z,9.10
2022-08-25T23:52:12.235Z,13.40
2022-08-25T23:54:39.816Z,11.65
2022-08-25T23:57:07.376Z,7.45
2022-08-25T23:59:38.259Z,7.78
